sensor_id;sensor_type;location;lat;lon;timestamp;P1;durP1;ratioP1;P2;durP2;ratioP2
56321;SDS011;42227;6.376;-10.782;2023-11-19T00:02:07;33.25;;;24.27;;
56321;SDS011;42227;6.376;-10.782;2023-11-19T00:04:36;42.70;;;21.45;;
56321;SDS011;42227;6.376;-10.782;2023-11-19T00:07:05;32.35;;;22.42;;
56321;SDS011;42227;6.376;-10.782;2023-11-19T00:09:34;40.25;;;22.25;;
56321;SDS011;42227;6.376;-10.782;2023-11-19T00:12:03;39.30;;;23.88;;
56321;SDS011;42227;6.376;-10.782;2023-11-19T00:14:33;38.67;;;25.35;;
56321;SDS011;42227;6.376;-10.782;2023-11-19T00:17:01;49.92;;;26.15;;
56321;SDS011;42227;6.376;-10.782;2023-11-19T00:19:30;36.92;;;25.40;;
56321;SDS011;42227;6.376;-10.782;2023-11-19T00:21:59;46.28;;;21.70;;
56321;SDS011;42227;6.376;-10.782;2023-11-19T00:24:27;41.38;;;21.02;;
56321;SDS011;42227;6.376;-10.782;2023-11-19T00:26:56;68.55;;;27.25;;
56321;SDS011;42227;6.376;-10.782;2023-11-19T00:29:25;43.38;;;27.23;;
56321;SDS011;42227;6.376;-10.782;2023-11-19T00:31:53;47.45;;;22.60;;
56321;SDS011;42227;6.376;-10.782;2023-11-19T00:34:22;62.90;;;38.28;;
56321;SDS011;42227;6.376;-10.782;2023-11-19T00:36:51;66.65;;;40.53;;
56321;SDS011;42227;6.376;-10.782;2023-11-19T00:39:19;76.07;;;42.22;;
56321;SDS011;42227;6.376;-10.782;2023-11-19T00:41:48;68.22;;;44.38;;
56321;SDS011;42227;6.376;-10.782;2023-11-19T00:44:17;74.57;;;43.53;;
56321;SDS011;42227;6.376;-10.782;2023-11-19T00:46:45;62.70;;;37.85;;
56321;SDS011;42227;6.376;-10.782;2023-11-19T00:49:14;61.15;;;35.25;;
56321;SDS011;42227;6.376;-10.782;2023-11-19T00:51:42;58.90;;;39.80;;
56321;SDS011;42227;6.376;-10.782;2023-11-19T00:54:12;64.13;;;39.47;;
56321;SDS011;42227;6.376;-10.782;2023-11-19T00:56:41;66.20;;;37.67;;
56321;SDS011;42227;6.376;-10.782;2023-11-19T00:59:09;61.72;;;34.35;;
56321;SDS011;42227;6.376;-10.782;2023-11-19T01:01:38;55.97;;;32.70;;
56321;SDS011;42227;6.376;-10.782;2023-11-19T01:04:07;56.80;;;35.25;;
56321;SDS011;42227;6.376;-10.782;2023-11-19T01:06:36;52.80;;;34.92;;
56321;SDS011;42227;6.376;-10.782;2023-11-19T01:09:15;63.30;;;35.85;;
56321;SDS011;42227;6.376;-10.782;2023-11-19T01:11:44;84.97;;;46.72;;
56321;SDS011;42227;6.376;-10.782;2023-11-19T01:14:12;91.65;;;46.88;;
56321;SDS011;42227;6.376;-10.782;2023-11-19T01:16:41;51.03;;;37.45;;
56321;SDS011;42227;6.376;-10.782;2023-11-19T01:19:10;21.80;;;11.70;;
56321;SDS011;42227;6.376;-10.782;2023-11-19T01:21:44;23.13;;;9.75;;
56321;SDS011;42227;6.376;-10.782;2023-11-19T01:24:12;16.02;;;7.53;;
56321;SDS011;42227;6.376;-10.782;2023-11-19T01:26:41;25.63;;;8.60;;
56321;SDS011;42227;6.376;-10.782;2023-11-19T01:29:15;16.85;;;7.57;;
56321;SDS011;42227;6.376;-10.782;2023-11-19T01:31:45;25.27;;;7.80;;
56321;SDS011;42227;6.376;-10.782;2023-11-19T01:34:14;18.60;;;8.27;;
56321;SDS011;42227;6.376;-10.782;2023-11-19T01:36:43;21.08;;;7.60;;
56321;SDS011;42227;6.376;-10.782;2023-11-19T01:39:11;23.85;;;8.32;;
56321;SDS011;42227;6.376;-10.782;2023-11-19T01:41:40;28.08;;;8.23;;
56321;SDS011;42227;6.376;-10.782;2023-11-19T01:44:08;19.70;;;7.25;;
56321;SDS011;42227;6.376;-10.782;2023-11-19T01:46:37;19.55;;;6.78;;
56321;SDS011;42227;6.376;-10.782;2023-11-19T01:49:08;24.48;;;7.22;;
56321;SDS011;42227;6.376;-10.782;2023-11-19T01:51:38;19.08;;;8.13;;
56321;SDS011;42227;6.376;-10.782;2023-11-19T01:54:07;11.48;;;6.25;;
56321;SDS011;42227;6.376;-10.782;2023-11-19T01:56:37;19.10;;;8.52;;
56321;SDS011;42227;6.376;-10.782;2023-11-19T02:01:37;19.98;;;7.50;;
56321;SDS011;42227;6.376;-10.782;2023-11-19T02:04:06;20.60;;;7.00;;
56321;SDS011;42227;6.376;-10.782;2023-11-19T02:06:37;22.48;;;8.27;;
56321;SDS011;42227;6.376;-10.782;2023-11-19T02:09:08;20.52;;;7.57;;
56321;SDS011;42227;6.376;-10.782;2023-11-19T02:11:39;16.77;;;7.53;;
56321;SDS011;42227;6.376;-10.782;2023-11-19T02:14:08;20.10;;;7.22;;
56321;SDS011;42227;6.376;-10.782;2023-11-19T02:16:37;24.80;;;7.20;;
56321;SDS011;42227;6.376;-10.782;2023-11-19T02:19:05;20.95;;;6.57;;
56321;SDS011;42227;6.376;-10.782;2023-11-19T02:21:34;30.48;;;8.90;;
56321;SDS011;42227;6.376;-10.782;2023-11-19T02:24:03;14.15;;;6.10;;
56321;SDS011;42227;6.376;-10.782;2023-11-19T02:29:25;15.73;;;8.68;;
56321;SDS011;42227;6.376;-10.782;2023-11-19T02:31:55;27.58;;;11.07;;
56321;SDS011;42227;6.376;-10.782;2023-11-19T02:34:23;24.23;;;8.35;;
56321;SDS011;42227;6.376;-10.782;2023-11-19T02:36:52;13.10;;;5.53;;
56321;SDS011;42227;6.376;-10.782;2023-11-19T02:39:21;11.20;;;4.50;;
56321;SDS011;42227;6.376;-10.782;2023-11-19T02:41:49;11.55;;;3.92;;
56321;SDS011;42227;6.376;-10.782;2023-11-19T02:44:18;8.07;;;3.80;;
56321;SDS011;42227;6.376;-10.782;2023-11-19T02:46:46;6.65;;;2.90;;
56321;SDS011;42227;6.376;-10.782;2023-11-19T02:49:15;6.15;;;3.83;;
56321;SDS011;42227;6.376;-10.782;2023-11-19T02:51:44;5.05;;;2.72;;
56321;SDS011;42227;6.376;-10.782;2023-11-19T02:54:12;14.45;;;5.00;;
56321;SDS011;42227;6.376;-10.782;2023-11-19T02:56:44;11.60;;;6.97;;
56321;SDS011;42227;6.376;-10.782;2023-11-19T02:59:12;7.13;;;3.37;;
56321;SDS011;42227;6.376;-10.782;2023-11-19T03:01:41;5.95;;;2.50;;
56321;SDS011;42227;6.376;-10.782;2023-11-19T03:04:10;3.22;;;1.98;;
56321;SDS011;42227;6.376;-10.782;2023-11-19T03:06:42;4.55;;;1.92;;
56321;SDS011;42227;6.376;-10.782;2023-11-19T03:09:10;2.75;;;1.98;;
56321;SDS011;42227;6.376;-10.782;2023-11-19T03:11:39;5.07;;;2.22;;
56321;SDS011;42227;6.376;-10.782;2023-11-19T03:14:08;6.00;;;1.70;;
56321;SDS011;42227;6.376;-10.782;2023-11-19T03:16:36;12.40;;;3.58;;
56321;SDS011;42227;6.376;-10.782;2023-11-19T03:19:05;11.38;;;3.78;;
56321;SDS011;42227;6.376;-10.782;2023-11-19T03:21:37;4.18;;;2.22;;
56321;SDS011;42227;6.376;-10.782;2023-11-19T03:24:06;3.45;;;2.25;;
56321;SDS011;42227;6.376;-10.782;2023-11-19T03:26:34;8.25;;;1.95;;
56321;SDS011;42227;6.376;-10.782;2023-11-19T03:29:03;4.40;;;2.28;;
56321;SDS011;42227;6.376;-10.782;2023-11-19T03:31:31;4.53;;;1.98;;
56321;SDS011;42227;6.376;-10.782;2023-11-19T03:34:00;3.80;;;2.70;;
56321;SDS011;42227;6.376;-10.782;2023-11-19T03:36:32;8.18;;;2.78;;
56321;SDS011;42227;6.376;-10.782;2023-11-19T03:39:00;4.03;;;2.28;;
56321;SDS011;42227;6.376;-10.782;2023-11-19T03:41:29;5.57;;;1.85;;
56321;SDS011;42227;6.376;-10.782;2023-11-19T03:44:08;5.22;;;2.75;;
56321;SDS011;42227;6.376;-10.782;2023-11-19T03:46:37;3.78;;;1.95;;
56321;SDS011;42227;6.376;-10.782;2023-11-19T03:49:05;4.90;;;2.05;;
56321;SDS011;42227;6.376;-10.782;2023-11-19T03:51:34;7.10;;;2.55;;
56321;SDS011;42227;6.376;-10.782;2023-11-19T03:54:02;4.43;;;2.13;;
56321;SDS011;42227;6.376;-10.782;2023-11-19T03:56:31;5.72;;;2.30;;
56321;SDS011;42227;6.376;-10.782;2023-11-19T03:58:59;6.30;;;2.20;;
56321;SDS011;42227;6.376;-10.782;2023-11-19T04:01:28;8.77;;;2.45;;
56321;SDS011;42227;6.376;-10.782;2023-11-19T04:03:56;7.95;;;2.50;;
56321;SDS011;42227;6.376;-10.782;2023-11-19T04:06:25;4.90;;;3.00;;
56321;SDS011;42227;6.376;-10.782;2023-11-19T04:08:54;7.40;;;2.63;;
56321;SDS011;42227;6.376;-10.782;2023-11-19T04:11:22;9.50;;;3.70;;
56321;SDS011;42227;6.376;-10.782;2023-11-19T04:13:50;11.48;;;3.58;;
56321;SDS011;42227;6.376;-10.782;2023-11-19T04:16:19;5.13;;;2.63;;
56321;SDS011;42227;6.376;-10.782;2023-11-19T04:18:53;16.02;;;4.10;;
56321;SDS011;42227;6.376;-10.782;2023-11-19T04:21:22;22.00;;;5.82;;
56321;SDS011;42227;6.376;-10.782;2023-11-19T04:23:51;13.05;;;6.70;;
56321;SDS011;42227;6.376;-10.782;2023-11-19T04:26:19;14.13;;;7.15;;
56321;SDS011;42227;6.376;-10.782;2023-11-19T04:28:48;19.17;;;6.20;;
56321;SDS011;42227;6.376;-10.782;2023-11-19T04:31:19;18.67;;;7.50;;
56321;SDS011;42227;6.376;-10.782;2023-11-19T04:33:48;17.55;;;6.80;;
56321;SDS011;42227;6.376;-10.782;2023-11-19T04:36:18;11.02;;;4.55;;
56321;SDS011;42227;6.376;-10.782;2023-11-19T04:38:47;13.52;;;4.15;;
56321;SDS011;42227;6.376;-10.782;2023-11-19T04:41:15;14.25;;;4.00;;
56321;SDS011;42227;6.376;-10.782;2023-11-19T04:43:44;7.05;;;3.83;;
56321;SDS011;42227;6.376;-10.782;2023-11-19T04:46:12;12.95;;;3.53;;
56321;SDS011;42227;6.376;-10.782;2023-11-19T04:48:41;5.43;;;3.22;;
56321;SDS011;42227;6.376;-10.782;2023-11-19T04:51:09;6.22;;;3.50;;
56321;SDS011;42227;6.376;-10.782;2023-11-19T04:53:38;10.15;;;3.35;;
56321;SDS011;42227;6.376;-10.782;2023-11-19T04:56:09;10.15;;;4.88;;
56321;SDS011;42227;6.376;-10.782;2023-11-19T04:58:39;9.13;;;3.30;;
56321;SDS011;42227;6.376;-10.782;2023-11-19T05:01:12;6.75;;;3.13;;
56321;SDS011;42227;6.376;-10.782;2023-11-19T05:03:42;13.65;;;4.10;;
56321;SDS011;42227;6.376;-10.782;2023-11-19T05:06:11;7.18;;;2.85;;
56321;SDS011;42227;6.376;-10.782;2023-11-19T05:08:40;7.65;;;3.67;;
56321;SDS011;42227;6.376;-10.782;2023-11-19T05:11:08;9.45;;;3.25;;
56321;SDS011;42227;6.376;-10.782;2023-11-19T05:13:37;8.18;;;3.47;;
56321;SDS011;42227;6.376;-10.782;2023-11-19T05:16:06;6.00;;;3.42;;
56321;SDS011;42227;6.376;-10.782;2023-11-19T05:18:34;9.80;;;4.10;;
56321;SDS011;42227;6.376;-10.782;2023-11-19T05:21:03;4.80;;;2.80;;
56321;SDS011;42227;6.376;-10.782;2023-11-19T05:23:31;7.35;;;4.20;;
56321;SDS011;42227;6.376;-10.782;2023-11-19T05:26:01;11.38;;;3.83;;
56321;SDS011;42227;6.376;-10.782;2023-11-19T05:28:33;17.60;;;3.85;;
56321;SDS011;42227;6.376;-10.782;2023-11-19T05:31:02;14.38;;;5.05;;
56321;SDS011;42227;6.376;-10.782;2023-11-19T05:33:30;7.13;;;2.83;;
56321;SDS011;42227;6.376;-10.782;2023-11-19T05:35:59;11.15;;;5.18;;
56321;SDS011;42227;6.376;-10.782;2023-11-19T05:38:27;9.85;;;4.07;;
56321;SDS011;42227;6.376;-10.782;2023-11-19T05:40:55;4.82;;;2.97;;
56321;SDS011;42227;6.376;-10.782;2023-11-19T05:43:24;8.23;;;3.00;;
56321;SDS011;42227;6.376;-10.782;2023-11-19T05:45:52;8.43;;;4.28;;
56321;SDS011;42227;6.376;-10.782;2023-11-19T05:48:21;8.18;;;3.35;;
56321;SDS011;42227;6.376;-10.782;2023-11-19T05:50:49;8.95;;;4.32;;
56321;SDS011;42227;6.376;-10.782;2023-11-19T05:53:17;8.55;;;3.97;;
56321;SDS011;42227;6.376;-10.782;2023-11-19T05:55:46;10.57;;;4.38;;
56321;SDS011;42227;6.376;-10.782;2023-11-19T05:58:15;11.77;;;4.82;;
56321;SDS011;42227;6.376;-10.782;2023-11-19T06:00:43;18.23;;;5.20;;
56321;SDS011;42227;6.376;-10.782;2023-11-19T06:03:14;9.30;;;4.25;;
56321;SDS011;42227;6.376;-10.782;2023-11-19T06:05:45;5.63;;;2.90;;
56321;SDS011;42227;6.376;-10.782;2023-11-19T06:08:14;13.00;;;4.60;;
56321;SDS011;42227;6.376;-10.782;2023-11-19T06:10:43;14.30;;;4.60;;
56321;SDS011;42227;6.376;-10.782;2023-11-19T06:13:15;9.65;;;4.32;;
56321;SDS011;42227;6.376;-10.782;2023-11-19T06:15:43;11.52;;;4.28;;
56321;SDS011;42227;6.376;-10.782;2023-11-19T06:18:12;7.47;;;3.47;;
56321;SDS011;42227;6.376;-10.782;2023-11-19T06:20:40;7.03;;;4.47;;
56321;SDS011;42227;6.376;-10.782;2023-11-19T06:23:10;11.95;;;3.92;;
56321;SDS011;42227;6.376;-10.782;2023-11-19T06:25:38;6.43;;;3.10;;
56321;SDS011;42227;6.376;-10.782;2023-11-19T06:28:06;12.50;;;3.95;;
56321;SDS011;42227;6.376;-10.782;2023-11-19T06:30:35;6.53;;;3.60;;
56321;SDS011;42227;6.376;-10.782;2023-11-19T06:33:03;7.57;;;4.22;;
56321;SDS011;42227;6.376;-10.782;2023-11-19T06:35:32;7.68;;;3.38;;
56321;SDS011;42227;6.376;-10.782;2023-11-19T06:38:00;22.00;;;4.55;;
56321;SDS011;42227;6.376;-10.782;2023-11-19T06:40:28;7.00;;;4.10;;
56321;SDS011;42227;6.376;-10.782;2023-11-19T06:42:57;14.02;;;4.47;;
56321;SDS011;42227;6.376;-10.782;2023-11-19T06:45:26;6.80;;;3.42;;
56321;SDS011;42227;6.376;-10.782;2023-11-19T06:47:54;16.15;;;4.90;;
56321;SDS011;42227;6.376;-10.782;2023-11-19T06:50:23;12.43;;;3.63;;
56321;SDS011;42227;6.376;-10.782;2023-11-19T06:52:51;7.65;;;3.78;;
56321;SDS011;42227;6.376;-10.782;2023-11-19T06:55:19;7.18;;;4.13;;
56321;SDS011;42227;6.376;-10.782;2023-11-19T06:57:48;12.07;;;5.40;;
56321;SDS011;42227;6.376;-10.782;2023-11-19T07:00:16;8.70;;;4.80;;
56321;SDS011;42227;6.376;-10.782;2023-11-19T07:02:45;12.05;;;5.47;;
56321;SDS011;42227;6.376;-10.782;2023-11-19T07:05:14;11.35;;;5.50;;
56321;SDS011;42227;6.376;-10.782;2023-11-19T07:07:42;8.50;;;5.38;;
56321;SDS011;42227;6.376;-10.782;2023-11-19T07:10:11;7.63;;;4.55;;
56321;SDS011;42227;6.376;-10.782;2023-11-19T07:12:39;13.10;;;4.88;;
56321;SDS011;42227;6.376;-10.782;2023-11-19T07:15:08;9.32;;;6.22;;
56321;SDS011;42227;6.376;-10.782;2023-11-19T07:17:36;10.88;;;6.25;;
56321;SDS011;42227;6.376;-10.782;2023-11-19T07:20:07;9.52;;;4.07;;
56321;SDS011;42227;6.376;-10.782;2023-11-19T07:22:36;9.48;;;4.82;;
56321;SDS011;42227;6.376;-10.782;2023-11-19T07:25:05;17.45;;;5.47;;
56321;SDS011;42227;6.376;-10.782;2023-11-19T07:27:33;9.43;;;5.03;;
56321;SDS011;42227;6.376;-10.782;2023-11-19T07:30:01;10.23;;;5.70;;
56321;SDS011;42227;6.376;-10.782;2023-11-19T07:32:30;16.95;;;6.82;;
56321;SDS011;42227;6.376;-10.782;2023-11-19T07:34:58;14.25;;;6.72;;
56321;SDS011;42227;6.376;-10.782;2023-11-19T07:37:27;16.02;;;5.40;;
56321;SDS011;42227;6.376;-10.782;2023-11-19T07:39:55;13.93;;;5.85;;
56321;SDS011;42227;6.376;-10.782;2023-11-19T07:42:24;11.13;;;5.30;;
56321;SDS011;42227;6.376;-10.782;2023-11-19T07:44:52;13.90;;;6.55;;
56321;SDS011;42227;6.376;-10.782;2023-11-19T07:47:20;12.25;;;6.00;;
56321;SDS011;42227;6.376;-10.782;2023-11-19T07:49:50;18.73;;;8.38;;
56321;SDS011;42227;6.376;-10.782;2023-11-19T07:52:18;12.52;;;7.07;;
56321;SDS011;42227;6.376;-10.782;2023-11-19T07:54:48;10.07;;;5.38;;
56321;SDS011;42227;6.376;-10.782;2023-11-19T07:57:16;21.83;;;8.65;;
56321;SDS011;42227;6.376;-10.782;2023-11-19T07:59:46;20.98;;;10.80;;
56321;SDS011;42227;6.376;-10.782;2023-11-19T08:02:15;28.95;;;16.48;;
56321;SDS011;42227;6.376;-10.782;2023-11-19T08:04:44;26.17;;;13.60;;
56321;SDS011;42227;6.376;-10.782;2023-11-19T08:07:13;29.95;;;13.05;;
56321;SDS011;42227;6.376;-10.782;2023-11-19T08:09:41;21.60;;;10.77;;
56321;SDS011;42227;6.376;-10.782;2023-11-19T08:12:10;24.33;;;8.48;;
56321;SDS011;42227;6.376;-10.782;2023-11-19T08:14:38;22.05;;;11.73;;
56321;SDS011;42227;6.376;-10.782;2023-11-19T08:17:07;21.35;;;9.80;;
56321;SDS011;42227;6.376;-10.782;2023-11-19T08:19:35;35.20;;;14.02;;
56321;SDS011;42227;6.376;-10.782;2023-11-19T08:22:03;15.75;;;10.40;;
56321;SDS011;42227;6.376;-10.782;2023-11-19T08:24:32;15.80;;;8.38;;
56321;SDS011;42227;6.376;-10.782;2023-11-19T08:27:00;25.00;;;13.50;;
56321;SDS011;42227;6.376;-10.782;2023-11-19T08:29:29;20.13;;;13.95;;
56321;SDS011;42227;6.376;-10.782;2023-11-19T08:31:59;24.45;;;12.18;;
56321;SDS011;42227;6.376;-10.782;2023-11-19T08:34:29;19.58;;;10.88;;
56321;SDS011;42227;6.376;-10.782;2023-11-19T08:36:57;18.50;;;8.40;;
56321;SDS011;42227;6.376;-10.782;2023-11-19T08:39:26;16.02;;;8.68;;
56321;SDS011;42227;6.376;-10.782;2023-11-19T08:41:55;17.50;;;7.85;;
56321;SDS011;42227;6.376;-10.782;2023-11-19T08:44:23;16.70;;;9.27;;
56321;SDS011;42227;6.376;-10.782;2023-11-19T08:46:53;22.77;;;10.52;;
56321;SDS011;42227;6.376;-10.782;2023-11-19T08:49:22;18.67;;;10.48;;
56321;SDS011;42227;6.376;-10.782;2023-11-19T08:51:50;32.17;;;13.05;;
56321;SDS011;42227;6.376;-10.782;2023-11-19T08:54:19;21.13;;;11.48;;
56321;SDS011;42227;6.376;-10.782;2023-11-19T08:56:47;22.17;;;11.23;;
56321;SDS011;42227;6.376;-10.782;2023-11-19T08:59:16;18.13;;;9.32;;
56321;SDS011;42227;6.376;-10.782;2023-11-19T09:01:44;15.90;;;9.32;;
56321;SDS011;42227;6.376;-10.782;2023-11-19T09:04:13;14.85;;;7.10;;
56321;SDS011;42227;6.376;-10.782;2023-11-19T09:06:41;20.92;;;7.15;;
56321;SDS011;42227;6.376;-10.782;2023-11-19T09:09:10;17.73;;;8.32;;
56321;SDS011;42227;6.376;-10.782;2023-11-19T09:11:39;13.02;;;6.03;;
56321;SDS011;42227;6.376;-10.782;2023-11-19T09:14:07;18.25;;;7.43;;
56321;SDS011;42227;6.376;-10.782;2023-11-19T09:16:36;34.67;;;7.35;;
56321;SDS011;42227;6.376;-10.782;2023-11-19T09:19:04;12.05;;;6.22;;
56321;SDS011;42227;6.376;-10.782;2023-11-19T09:21:33;11.77;;;6.53;;
56321;SDS011;42227;6.376;-10.782;2023-11-19T09:24:01;13.30;;;7.18;;
56321;SDS011;42227;6.376;-10.782;2023-11-19T09:26:30;12.63;;;8.02;;
56321;SDS011;42227;6.376;-10.782;2023-11-19T09:28:59;16.63;;;8.13;;
56321;SDS011;42227;6.376;-10.782;2023-11-19T09:31:31;15.50;;;7.68;;
56321;SDS011;42227;6.376;-10.782;2023-11-19T09:34:01;22.35;;;8.65;;
56321;SDS011;42227;6.376;-10.782;2023-11-19T09:36:33;18.55;;;7.70;;
56321;SDS011;42227;6.376;-10.782;2023-11-19T09:39:11;18.02;;;6.97;;
56321;SDS011;42227;6.376;-10.782;2023-11-19T09:41:49;10.48;;;6.88;;
56321;SDS011;42227;6.376;-10.782;2023-11-19T09:44:19;13.85;;;6.97;;
56321;SDS011;42227;6.376;-10.782;2023-11-19T09:46:55;11.45;;;6.70;;
56321;SDS011;42227;6.376;-10.782;2023-11-19T09:49:26;19.73;;;7.78;;
56321;SDS011;42227;6.376;-10.782;2023-11-19T09:51:58;13.70;;;7.35;;
56321;SDS011;42227;6.376;-10.782;2023-11-19T09:54:26;11.35;;;5.68;;
56321;SDS011;42227;6.376;-10.782;2023-11-19T09:56:56;14.07;;;5.85;;
56321;SDS011;42227;6.376;-10.782;2023-11-19T09:59:26;12.20;;;5.93;;
56321;SDS011;42227;6.376;-10.782;2023-11-19T10:01:55;12.18;;;6.88;;
56321;SDS011;42227;6.376;-10.782;2023-11-19T10:04:24;13.68;;;6.93;;
56321;SDS011;42227;6.376;-10.782;2023-11-19T10:06:55;10.90;;;6.00;;
56321;SDS011;42227;6.376;-10.782;2023-11-19T10:09:24;13.43;;;7.20;;
56321;SDS011;42227;6.376;-10.782;2023-11-19T10:11:52;26.05;;;7.03;;
56321;SDS011;42227;6.376;-10.782;2023-11-19T10:14:22;11.50;;;7.13;;
56321;SDS011;42227;6.376;-10.782;2023-11-19T10:16:52;8.90;;;5.60;;
56321;SDS011;42227;6.376;-10.782;2023-11-19T10:19:22;15.75;;;7.47;;
56321;SDS011;42227;6.376;-10.782;2023-11-19T10:21:50;14.15;;;7.05;;
56321;SDS011;42227;6.376;-10.782;2023-11-19T10:24:32;8.63;;;5.75;;
56321;SDS011;42227;6.376;-10.782;2023-11-19T10:27:07;9.52;;;5.57;;
56321;SDS011;42227;6.376;-10.782;2023-11-19T10:29:36;10.32;;;5.47;;
56321;SDS011;42227;6.376;-10.782;2023-11-19T10:32:05;11.05;;;5.68;;
56321;SDS011;42227;6.376;-10.782;2023-11-19T10:35:04;13.85;;;5.03;;
56321;SDS011;42227;6.376;-10.782;2023-11-19T10:37:33;13.27;;;5.97;;
56321;SDS011;42227;6.376;-10.782;2023-11-19T10:40:02;10.40;;;5.55;;
56321;SDS011;42227;6.376;-10.782;2023-11-19T10:42:30;10.68;;;4.30;;
56321;SDS011;42227;6.376;-10.782;2023-11-19T10:44:59;12.32;;;5.70;;
56321;SDS011;42227;6.376;-10.782;2023-11-19T10:47:27;8.63;;;5.38;;
56321;SDS011;42227;6.376;-10.782;2023-11-19T10:50:00;15.55;;;6.68;;
56321;SDS011;42227;6.376;-10.782;2023-11-19T10:52:28;12.57;;;5.57;;
56321;SDS011;42227;6.376;-10.782;2023-11-19T10:54:58;12.15;;;5.53;;
56321;SDS011;42227;6.376;-10.782;2023-11-19T10:57:30;10.60;;;6.68;;
56321;SDS011;42227;6.376;-10.782;2023-11-19T11:00:01;10.63;;;5.70;;
56321;SDS011;42227;6.376;-10.782;2023-11-19T11:02:30;14.98;;;5.03;;
56321;SDS011;42227;6.376;-10.782;2023-11-19T11:05:04;14.90;;;6.13;;
56321;SDS011;42227;6.376;-10.782;2023-11-19T11:07:33;11.10;;;5.93;;
56321;SDS011;42227;6.376;-10.782;2023-11-19T11:10:07;15.98;;;5.45;;
56321;SDS011;42227;6.376;-10.782;2023-11-19T11:12:37;9.15;;;5.68;;
56321;SDS011;42227;6.376;-10.782;2023-11-19T11:15:06;14.73;;;5.30;;
56321;SDS011;42227;6.376;-10.782;2023-11-19T11:17:35;13.15;;;5.65;;
56321;SDS011;42227;6.376;-10.782;2023-11-19T11:20:07;12.90;;;5.13;;
56321;SDS011;42227;6.376;-10.782;2023-11-19T11:22:42;11.20;;;6.10;;
56321;SDS011;42227;6.376;-10.782;2023-11-19T11:25:48;14.18;;;6.45;;
56321;SDS011;42227;6.376;-10.782;2023-11-19T11:28:33;11.30;;;6.05;;
56321;SDS011;42227;6.376;-10.782;2023-11-19T11:34:31;10.02;;;5.72;;
56321;SDS011;42227;6.376;-10.782;2023-11-19T11:37:21;13.52;;;5.60;;
56321;SDS011;42227;6.376;-10.782;2023-11-19T11:39:59;14.70;;;6.95;;
56321;SDS011;42227;6.376;-10.782;2023-11-19T11:45:12;13.00;;;6.32;;
56321;SDS011;42227;6.376;-10.782;2023-11-19T11:50:11;14.25;;;6.90;;
56321;SDS011;42227;6.376;-10.782;2023-11-19T11:55:27;14.00;;;7.25;;
56321;SDS011;42227;6.376;-10.782;2023-11-19T11:58:02;11.80;;;6.68;;
56321;SDS011;42227;6.376;-10.782;2023-11-19T12:00:38;21.05;;;7.57;;
56321;SDS011;42227;6.376;-10.782;2023-11-19T12:03:08;8.38;;;5.22;;
56321;SDS011;42227;6.376;-10.782;2023-11-19T12:05:44;10.48;;;5.18;;
56321;SDS011;42227;6.376;-10.782;2023-11-19T12:08:15;12.02;;;6.85;;
56321;SDS011;42227;6.376;-10.782;2023-11-19T12:10:56;10.80;;;6.43;;
56321;SDS011;42227;6.376;-10.782;2023-11-19T12:13:29;17.52;;;7.70;;
56321;SDS011;42227;6.376;-10.782;2023-11-19T12:16:14;16.95;;;7.65;;
56321;SDS011;42227;6.376;-10.782;2023-11-19T12:18:43;14.23;;;7.80;;
56321;SDS011;42227;6.376;-10.782;2023-11-19T12:21:12;15.05;;;7.20;;
56321;SDS011;42227;6.376;-10.782;2023-11-19T12:23:59;11.50;;;7.57;;
56321;SDS011;42227;6.376;-10.782;2023-11-19T12:26:34;14.38;;;7.70;;
56321;SDS011;42227;6.376;-10.782;2023-11-19T12:29:06;16.27;;;7.82;;
56321;SDS011;42227;6.376;-10.782;2023-11-19T12:31:36;18.35;;;8.43;;
56321;SDS011;42227;6.376;-10.782;2023-11-19T12:34:05;13.85;;;8.23;;
56321;SDS011;42227;6.376;-10.782;2023-11-19T12:36:34;24.80;;;10.38;;
56321;SDS011;42227;6.376;-10.782;2023-11-19T12:39:03;14.63;;;6.95;;
56321;SDS011;42227;6.376;-10.782;2023-11-19T12:41:31;12.48;;;6.35;;
56321;SDS011;42227;6.376;-10.782;2023-11-19T12:44:09;13.05;;;7.15;;
56321;SDS011;42227;6.376;-10.782;2023-11-19T12:46:38;13.10;;;7.43;;
56321;SDS011;42227;6.376;-10.782;2023-11-19T12:49:06;27.95;;;9.98;;
56321;SDS011;42227;6.376;-10.782;2023-11-19T12:51:35;25.38;;;9.23;;
56321;SDS011;42227;6.376;-10.782;2023-11-19T12:54:03;15.43;;;6.97;;
56321;SDS011;42227;6.376;-10.782;2023-11-19T12:56:32;16.67;;;8.23;;
56321;SDS011;42227;6.376;-10.782;2023-11-19T12:59:09;23.15;;;15.05;;
56321;SDS011;42227;6.376;-10.782;2023-11-19T13:01:38;31.20;;;7.60;;
56321;SDS011;42227;6.376;-10.782;2023-11-19T13:04:17;17.27;;;7.28;;
56321;SDS011;42227;6.376;-10.782;2023-11-19T13:06:46;23.75;;;9.98;;
56321;SDS011;42227;6.376;-10.782;2023-11-19T13:09:31;16.17;;;7.75;;
56321;SDS011;42227;6.376;-10.782;2023-11-19T13:12:00;23.27;;;10.35;;
56321;SDS011;42227;6.376;-10.782;2023-11-19T13:14:40;13.35;;;5.60;;
56321;SDS011;42227;6.376;-10.782;2023-11-19T13:17:12;16.02;;;6.28;;
56321;SDS011;42227;6.376;-10.782;2023-11-19T13:19:41;12.82;;;5.93;;
56321;SDS011;42227;6.376;-10.782;2023-11-19T13:22:09;14.65;;;6.93;;
56321;SDS011;42227;6.376;-10.782;2023-11-19T13:24:38;18.40;;;8.32;;
56321;SDS011;42227;6.376;-10.782;2023-11-19T13:27:06;21.52;;;6.47;;
56321;SDS011;42227;6.376;-10.782;2023-11-19T13:29:35;16.83;;;6.25;;
56321;SDS011;42227;6.376;-10.782;2023-11-19T13:32:03;15.93;;;7.00;;
56321;SDS011;42227;6.376;-10.782;2023-11-19T13:34:32;15.77;;;6.03;;
56321;SDS011;42227;6.376;-10.782;2023-11-19T13:37:00;11.88;;;4.78;;
56321;SDS011;42227;6.376;-10.782;2023-11-19T13:39:29;13.52;;;6.57;;
56321;SDS011;42227;6.376;-10.782;2023-11-19T13:41:57;16.25;;;7.05;;
56321;SDS011;42227;6.376;-10.782;2023-11-19T13:44:29;17.00;;;5.40;;
56321;SDS011;42227;6.376;-10.782;2023-11-19T13:46:57;16.42;;;10.73;;
56321;SDS011;42227;6.376;-10.782;2023-11-19T13:49:25;15.02;;;7.00;;
56321;SDS011;42227;6.376;-10.782;2023-11-19T13:51:54;11.15;;;5.03;;
56321;SDS011;42227;6.376;-10.782;2023-11-19T13:54:23;11.23;;;8.23;;
56321;SDS011;42227;6.376;-10.782;2023-11-19T13:56:54;15.15;;;5.90;;
56321;SDS011;42227;6.376;-10.782;2023-11-19T13:59:23;21.90;;;11.07;;
56321;SDS011;42227;6.376;-10.782;2023-11-19T14:01:52;22.50;;;13.85;;
56321;SDS011;42227;6.376;-10.782;2023-11-19T14:04:20;26.85;;;8.50;;
56321;SDS011;42227;6.376;-10.782;2023-11-19T14:06:49;17.63;;;8.13;;
56321;SDS011;42227;6.376;-10.782;2023-11-19T14:09:18;18.85;;;9.45;;
56321;SDS011;42227;6.376;-10.782;2023-11-19T14:11:47;19.73;;;7.57;;
56321;SDS011;42227;6.376;-10.782;2023-11-19T14:14:15;15.70;;;5.38;;
56321;SDS011;42227;6.376;-10.782;2023-11-19T14:16:44;18.98;;;9.73;;
56321;SDS011;42227;6.376;-10.782;2023-11-19T14:19:12;17.85;;;12.30;;
56321;SDS011;42227;6.376;-10.782;2023-11-19T14:21:41;16.40;;;7.93;;
56321;SDS011;42227;6.376;-10.782;2023-11-19T14:24:09;15.95;;;7.80;;
56321;SDS011;42227;6.376;-10.782;2023-11-19T14:26:37;16.63;;;6.68;;
56321;SDS011;42227;6.376;-10.782;2023-11-19T14:29:06;16.98;;;8.98;;
56321;SDS011;42227;6.376;-10.782;2023-11-19T14:31:35;27.05;;;9.55;;
56321;SDS011;42227;6.376;-10.782;2023-11-19T14:34:03;28.15;;;10.10;;
56321;SDS011;42227;6.376;-10.782;2023-11-19T14:36:32;13.48;;;7.57;;
56321;SDS011;42227;6.376;-10.782;2023-11-19T14:39:01;10.43;;;6.57;;
56321;SDS011;42227;6.376;-10.782;2023-11-19T14:41:29;13.50;;;8.85;;
56321;SDS011;42227;6.376;-10.782;2023-11-19T14:43:58;18.88;;;8.80;;
56321;SDS011;42227;6.376;-10.782;2023-11-19T14:46:26;16.88;;;7.28;;
56321;SDS011;42227;6.376;-10.782;2023-11-19T14:48:55;11.80;;;5.55;;
56321;SDS011;42227;6.376;-10.782;2023-11-19T14:51:23;19.65;;;8.02;;
56321;SDS011;42227;6.376;-10.782;2023-11-19T14:53:52;25.98;;;9.48;;
56321;SDS011;42227;6.376;-10.782;2023-11-19T14:56:20;22.70;;;8.05;;